Time;durP1;ratioP1;P1;durP2;ratioP2;P2;SDS_P1;SDS_P2;PMS_P1;PMS_P2;Temp;Humidity;BMP_temperature;BMP_pressure;BME280_temperature;BME280_humidity;BME280_pressure;Samples;Min_cycle;Max_cycle;Signal;HPM_P1;HPM_P2
2021/10/11 00:01:01;;;;;;;;;57.75;45.75;;;;;20.85;100.00;102326.78;5043677;28;45328;-85
2021/10/11 00:03:27;;;;;;;;;64.00;48.50;;;;;20.84;100.00;102322.44;5036911;28;47132;-85
2021/10/11 00:05:52;;;;;;;;;63.75;46.00;;;;;20.75;100.00;102312.47;5031050;28;45474;-85
2021/10/11 00:08:17;;;;;;;;;66.50;49.00;;;;;20.61;100.00;102310.94;5029837;28;45430;-85
2021/10/11 00:10:43;;;;;;;;;63.00;47.00;;;;;20.68;100.00;102319.31;5037837;28;45210;-85
2021/10/11 00:13:08;;;;;;;;;64.50;49.00;;;;;20.75;100.00;102316.00;5037170;28;45543;-85
2021/10/11 00:15:34;;;;;;;;;62.00;46.50;;;;;20.83;100.00;102321.56;5035547;28;45242;-85
2021/10/11 00:17:59;;;;;;;;;66.75;46.25;;;;;20.83;100.00;102316.19;5036854;28;45600;-85
2021/10/11 00:20:24;;;;;;;;;61.00;47.00;;;;;20.92;100.00;102320.78;5035414;28;45497;-85
2021/10/11 00:22:50;;;;;;;;;65.75;50.00;;;;;20.87;100.00;102319.47;5035449;28;47157;-85
2021/10/11 00:25:15;;;;;;;;;65.00;47.75;;;;;20.84;100.00;102322.44;5036616;28;45417;-85
2021/10/11 00:27:41;;;;;;;;;65.25;49.00;;;;;20.90;100.00;102324.56;5035317;28;45381;-85
2021/10/11 00:30:10;;;;;;;;;66.50;48.25;;;;;20.84;100.00;102331.34;5037068;28;45453;-85
2021/10/11 00:32:36;;;;;;;;;65.25;49.75;;;;;20.72;100.00;102321.63;5035590;28;46047;-85
2021/10/11 00:35:02;;;;;;;;;63.75;49.25;;;;;20.68;100.00;102325.53;5036713;28;45275;-85
2021/10/11 00:37:28;;;;;;;;;64.75;48.25;;;;;20.61;100.00;102324.38;5027971;28;45532;-85
2021/10/11 00:39:53;;;;;;;;;67.00;48.25;;;;;20.62;100.00;102326.06;5037411;28;46082;-85
2021/10/11 00:42:18;;;;;;;;;69.25;51.25;;;;;20.59;100.00;102318.28;5039255;28;46702;-84
2021/10/11 00:44:44;;;;;;;;;64.50;47.75;;;;;20.55;100.00;102316.84;5046713;28;45491;-85
2021/10/11 00:47:10;;;;;;;;;67.00;49.75;;;;;20.52;100.00;102322.47;5036422;28;45421;-85
2021/10/11 00:49:35;;;;;;;;;67.75;49.50;;;;;20.42;100.00;102317.03;5036486;28;45405;-85
2021/10/11 00:52:01;;;;;;;;;68.00;48.50;;;;;20.41;100.00;102325.19;5046602;28;47124;-85
2021/10/11 00:54:28;;;;;;;;;64.50;49.00;;;;;20.33;100.00;102316.91;5026760;28;45402;-85
2021/10/11 00:56:53;;;;;;;;;65.50;47.25;;;;;20.31;100.00;102308.13;5036108;28;45324;-85
2021/10/11 00:59:19;;;;;;;;;63.75;49.00;;;;;20.32;100.00;102312.53;5036286;28;45457;-85
2021/10/11 01:01:44;;;;;;;;;66.50;49.25;;;;;20.26;100.00;102302.31;5035940;28;46442;-85
2021/10/11 01:04:09;;;;;;;;;75.25;52.75;;;;;20.25;100.00;102303.28;5045943;28;45409;-85
2021/10/11 01:06:38;;;;;;;;;69.25;51.00;;;;;20.18;100.00;102303.81;5035950;28;45323;-85
2021/10/11 01:09:05;;;;;;;;;68.00;50.25;;;;;20.17;100.00;102311.97;5036296;28;45259;-85
2021/10/11 01:11:30;;;;;;;;;73.50;53.00;;;;;20.22;100.00;102306.22;5037714;28;45432;-85
2021/10/11 01:13:56;;;;;;;;;66.75;52.00;;;;;20.18;100.00;102313.69;5039343;28;45471;-85
2021/10/11 01:16:21;;;;;;;;;71.25;52.00;;;;;20.18;100.00;102311.00;5035312;28;45417;-85
2021/10/11 01:18:46;;;;;;;;;66.50;50.75;;;;;20.05;100.00;102311.16;5040891;28;45973;-85
2021/10/11 01:21:12;;;;;;;;;65.00;50.25;;;;;20.11;100.00;102316.03;5041515;28;46387;-85
2021/10/11 01:23:37;;;;;;;;;64.75;51.00;;;;;20.06;100.00;102309.34;5039910;28;45373;-86
2021/10/11 01:26:03;;;;;;;;;72.25;51.00;;;;;20.09;100.00;102311.78;5039265;28;45945;-85
2021/10/11 01:28:29;;;;;;;;;73.00;53.00;;;;;20.07;100.00;102311.88;5037857;28;45570;-85
2021/10/11 01:30:55;;;;;;;;;71.75;49.75;;;;;20.15;100.00;102303.19;5037595;28;48176;-85
2021/10/11 01:33:21;;;;;;;;;67.75;49.50;;;;;20.16;100.00;102302.22;5038969;28;45724;-85
2021/10/11 01:35:46;;;;;;;;;72.50;52.50;;;;;20.15;100.00;102306.75;5053617;28;45584;-85
2021/10/11 01:38:12;;;;;;;;;66.75;49.75;;;;;20.29;100.00;102297.56;5037646;28;45456;-85
2021/10/11 01:40:38;;;;;;;;;71.25;51.75;;;;;20.34;100.00;102302.53;5043587;28;47153;-85
2021/10/11 01:43:05;;;;;;;;;66.00;50.75;;;;;20.31;100.00;102292.88;5037425;28;45540;-85
2021/10/11 01:45:31;;;;;;;;;69.50;50.25;;;;;20.41;100.00;102295.69;5038945;28;45372;-85
2021/10/11 01:47:56;;;;;;;;;67.00;50.75;;;;;20.36;100.00;102284.50;5038740;28;45296;-85
2021/10/11 01:50:22;;;;;;;;;67.75;50.75;;;;;20.29;100.00;102291.34;5037303;28;47053;-86
2021/10/11 01:52:47;;;;;;;;;65.50;49.75;;;;;20.19;100.00;102277.84;5037272;28;45435;-86
2021/10/11 01:55:12;;;;;;;;;65.50;49.25;;;;;20.18;100.00;102285.03;5054059;28;45304;-86
2021/10/11 01:57:38;;;;;;;;;67.75;49.00;;;;;20.15;100.00;102285.28;5045905;28;45850;-87
2021/10/11 02:00:07;;;;;;;;;66.00;49.25;;;;;20.18;100.00;102294.91;5038415;28;46063;-86
2021/10/11 02:02:33;;;;;;;;;68.25;50.75;;;;;20.26;100.00;102299.63;5056447;28;45921;-85
2021/10/11 02:04:58;;;;;;;;;67.00;47.00;;;;;20.28;100.00;102300.38;5035723;27;45523;-86
2021/10/11 02:07:23;;;;;;;;;67.00;48.75;;;;;20.22;100.00;102309.75;5036985;28;45684;-86
2021/10/11 02:09:49;;;;;;;;;62.50;48.25;;;;;20.26;100.00;102299.63;5038672;28;46425;-86
2021/10/11 02:12:15;;;;;;;;;64.50;50.00;;;;;20.33;100.00;102301.66;5053978;28;45720;-86
2021/10/11 02:14:40;;;;;;;;;61.50;46.50;;;;;20.30;100.00;102299.25;5034046;28;45412;-86
2021/10/11 02:17:05;;;;;;;;;58.00;47.25;;;;;20.36;100.00;102292.56;5034632;28;45372;-87
2021/10/11 02:19:31;;;;;;;;;66.75;49.00;;;;;20.29;100.00;102292.19;5036584;28;45517;-86
2021/10/11 02:21:56;;;;;;;;;67.50;47.25;;;;;20.39;100.00;102293.16;5037377;28;45382;-86
2021/10/11 02:24:21;;;;;;;;;60.75;47.25;;;;;20.40;100.00;102296.66;5053646;28;45401;-86
2021/10/11 02:26:47;;;;;;;;;66.50;47.75;;;;;20.39;100.00;102300.34;5036566;28;45638;-87
2021/10/11 02:29:12;;;;;;;;;68.75;48.75;;;;;20.42;100.00;102297.38;5036334;28;47085;-85
2021/10/11 02:31:38;;;;;;;;;64.00;47.25;;;;;20.43;100.00;102299.09;5053460;28;45546;-86
2021/10/11 02:34:03;;;;;;;;;65.75;47.75;;;;;20.38;100.00;102293.28;5038111;28;45406;-86
2021/10/11 02:36:29;;;;;;;;;65.75;45.50;;;;;20.45;100.00;102299.81;5037897;28;45589;-86
2021/10/11 02:38:54;;;;;;;;;65.25;47.25;;;;;20.44;100.00;102282.00;5038039;28;45361;-86
2021/10/11 02:41:21;;;;;;;;;57.75;41.00;;;;;20.50;100.00;102276.13;5036269;28;45324;-85
2021/10/11 02:43:47;;;;;;;;;63.75;45.75;;;;;20.52;100.00;102271.47;5039663;28;45302;-86
2021/10/11 02:46:13;;;;;;;;;60.50;47.25;;;;;20.52;100.00;102274.16;5040410;28;45556;-85
2021/10/11 02:48:38;;;;;;;;;65.00;48.25;;;;;20.48;100.00;102275.41;5039389;28;45361;-85
2021/10/11 02:51:04;;;;;;;;;60.25;46.00;;;;;20.53;100.00;102286.59;5038392;28;45213;-85
2021/10/11 02:53:29;;;;;;;;;62.00;46.00;;;;;20.50;100.00;102270.75;5045312;28;45325;-85
2021/10/11 02:55:54;;;;;;;;;62.75;46.75;;;;;20.46;100.00;102272.84;5032972;28;45542;-86
2021/10/11 02:58:20;;;;;;;;;64.75;49.00;;;;;20.53;100.00;102270.50;5041656;28;47976;-86
2021/10/11 03:00:45;;;;;;;;;59.25;45.00;;;;;20.54;100.00;102262.31;5034048;28;45238;-86
2021/10/11 03:03:11;;;;;;;;;58.25;44.50;;;;;20.51;100.00;102259.88;5032304;28;45499;-85
2021/10/11 03:05:36;;;;;;;;;62.75;45.25;;;;;20.54;100.00;102265.00;5029089;28;45396;-86
2021/10/11 03:08:01;;;;;;;;;58.00;44.50;;;;;20.50;100.00;102260.88;5037119;28;45448;-86
2021/10/11 03:10:27;;;;;;;;;56.75;44.25;;;;;20.44;100.00;102261.41;5037420;28;45233;-84
2021/10/11 03:12:52;;;;;;;;;60.75;44.00;;;;;20.48;100.00;102257.50;5028271;28;45412;-86
2021/10/11 03:15:17;;;;;;;;;59.50;43.75;;;;;20.46;100.00;102266.63;5036401;28;45742;-85
2021/10/11 03:17:43;;;;;;;;;53.50;41.75;;;;;20.54;100.00;102267.69;5028040;28;46200;-86
2021/10/11 03:20:09;;;;;;;;;55.25;42.25;;;;;20.57;100.00;102266.59;5036301;28;45490;-85
2021/10/11 03:22:34;;;;;;;;;54.50;41.00;;;;;20.54;100.00;102275.75;5053113;28;45253;-86
2021/10/11 03:25:00;;;;;;;;;51.25;39.00;;;;;20.55;100.00;102271.22;5038698;28;45601;-86
2021/10/11 03:27:25;;;;;;;;;52.00;40.00;;;;;20.62;100.00;102276.91;5040957;28;46455;-85
2021/10/11 03:29:50;;;;;;;;;53.75;40.00;;;;;20.57;100.00;102273.78;5038085;28;45285;-85
2021/10/11 03:32:16;;;;;;;;;53.00;39.00;;;;;20.60;100.00;102273.50;5036210;28;45340;-86
2021/10/11 03:34:41;;;;;;;;;50.00;37.50;;;;;20.64;100.00;102277.63;5052756;28;45327;-86
2021/10/11 03:37:06;;;;;;;;;49.25;36.50;;;;;20.56;100.00;102272.06;5036902;28;45407;-86
2021/10/11 03:39:32;;;;;;;;;47.50;37.75;;;;;20.63;100.00;102281.28;5037389;28;45305;-86
2021/10/11 03:41:57;;;;;;;;;48.50;36.25;;;;;20.65;100.00;102279.34;5052977;28;45362;-85
2021/10/11 03:44:22;;;;;;;;;47.75;36.75;;;;;20.59;100.00;102279.84;5035770;28;45289;-85
2021/10/11 03:46:48;;;;;;;;;47.50;34.00;;;;;20.58;100.00;102281.69;5019659;28;46439;-85
2021/10/11 03:49:14;;;;;;;;;36.75;31.25;;;;;20.66;100.00;102289.09;5056522;28;45415;-85
2021/10/11 03:51:39;;;;;;;;;45.25;34.00;;;;;20.66;100.00;102283.72;5041962;28;45242;-85
2021/10/11 03:54:04;;;;;;;;;40.00;32.50;;;;;20.68;100.00;102287.97;5036673;28;45551;-85
2021/10/11 03:56:30;;;;;;;;;45.50;33.50;;;;;20.60;100.00;102285.09;5053700;27;45621;-85
2021/10/11 03:58:55;;;;;;;;;38.75;31.75;;;;;20.57;100.00;102281.84;5057273;27;44882;-85
2021/10/11 04:01:21;;;;;;;;;32.00;30.50;;;;;20.57;100.00;102282.69;5050621;28;45257;-85
2021/10/11 04:03:46;;;;;;;;;39.50;31.50;;;;;20.51;100.00;102285.88;5047753;27;45388;-85
2021/10/11 04:06:12;;;;;;;;;36.50;27.50;;;;;20.53;100.00;102278.53;5040312;28;46033;-85
2021/10/11 04:08:40;;;;;;;;;33.50;28.50;;;;;20.52;100.00;102277.69;5041231;28;44748;-85
2021/10/11 04:11:11;;;;;;;;;30.50;25.00;;;;;20.54;100.00;102274.88;5040081;28;45212;-85
2021/10/11 04:13:38;;;;;;;;;32.50;26.25;;;;;20.55;100.00;102268.53;5030992;28;45497;-85
2021/10/11 04:16:05;;;;;;;;;29.00;24.75;;;;;20.51;100.00;102278.66;5035773;28;47258;-85
2021/10/11 04:18:30;;;;;;;;;22.50;19.25;;;;;20.37;100.00;102275.47;5036810;28;45692;-85
2021/10/11 04:20:56;;;;;;;;;25.00;24.00;;;;;20.36;100.00;102287.19;5052410;28;45391;-85
2021/10/11 04:23:21;;;;;;;;;27.00;18.75;;;;;20.37;100.00;102287.06;5035160;28;45408;-85
2021/10/11 04:25:47;;;;;;;;;27.50;19.25;;;;;20.36;100.00;102287.19;5032341;28;45328;-85
2021/10/11 04:28:15;;;;;;;;;25.00;19.50;;;;;20.30;100.00;102285.00;5035083;28;45251;-86
2021/10/11 04:30:41;;;;;;;;;24.00;22.00;;;;;20.24;100.00;102280.97;5036513;28;45419;-85
2021/10/11 04:33:06;;;;;;;;;17.25;16.75;;;;;20.24;100.00;102288.16;5036518;28;45263;-85
2021/10/11 04:35:32;;;;;;;;;23.50;18.50;;;;;20.20;100.00;102290.28;5035851;28;45393;-85
2021/10/11 04:37:57;;;;;;;;;22.50;18.75;;;;;20.07;100.00;102290.44;5029053;28;45266;-85
2021/10/11 04:40:22;;;;;;;;;21.00;17.25;;;;;20.14;100.00;102301.50;5034277;28;45378;-85
2021/10/11 04:42:48;;;;;;;;;24.25;18.00;;;;;20.09;100.00;102295.69;5030398;28;45997;-85
2021/10/11 04:45:13;;;;;;;;;22.75;16.00;;;;;19.98;100.00;102299.25;5035588;28;48175;-85
2021/10/11 04:47:40;;;;;;;;;28.50;18.25;;;;;19.92;100.00;102297.06;5050224;28;45503;-85
2021/10/11 04:50:06;;;;;;;;;16.25;13.50;;;;;19.87;100.00;102304.63;5035877;28;45498;-85
2021/10/11 04:52:31;;;;;;;;;23.75;16.50;;;;;19.75;100.00;102301.16;5037851;28;45215;-85
2021/10/11 04:54:57;;;;;;;;;19.50;16.25;;;;;19.77;100.00;102301.00;5041240;28;46160;-85
2021/10/11 04:57:23;;;;;;;;;16.50;12.75;;;;;19.76;100.00;102299.28;5024056;28;45206;-85
2021/10/11 04:59:48;;;;;;;;;23.25;17.75;;;;;19.73;100.00;102310.28;5023171;28;45359;-85
2021/10/11 05:02:14;;;;;;;;;20.50;13.25;;;;;19.64;100.00;102314.56;5033763;28;45313;-85
2021/10/11 05:04:39;;;;;;;;;20.25;16.00;;;;;19.68;100.00;102316.00;5033047;28;47992;-85
2021/10/11 05:07:05;;;;;;;;;18.75;15.25;;;;;19.68;100.00;102313.31;5038864;28;45437;-85
2021/10/11 05:09:31;;;;;;;;;19.00;13.25;;;;;19.66;100.00;102320.66;5038991;28;45327;-86
2021/10/11 05:11:57;;;;;;;;;16.50;11.75;;;;;19.59;100.00;102308.69;5037444;28;45467;-86
2021/10/11 05:14:22;;;;;;;;;19.00;12.00;;;;;19.61;100.00;102309.44;5037530;28;45270;-86
2021/10/11 05:16:48;;;;;;;;;16.00;13.75;;;;;19.65;100.00;102304.69;5039522;28;45304;-86
2021/10/11 05:19:14;;;;;;;;;16.50;12.25;;;;;19.67;100.00;102313.44;5038972;28;45823;-86
2021/10/11 05:21:40;;;;;;;;;12.50;11.50;;;;;19.71;100.00;102310.41;5028092;28;45452;-85
2021/10/11 05:24:05;;;;;;;;;17.50;12.50;;;;;19.69;100.00;102306.13;5026675;28;46203;-85
2021/10/11 05:26:31;;;;;;;;;15.25;10.00;;;;;19.67;100.00;102306.25;5054212;28;45283;-86
2021/10/11 05:28:57;;;;;;;;;14.50;11.75;;;;;19.65;100.00;102307.38;5046516;28;45577;-87
2021/10/11 05:31:23;;;;;;;;;14.50;10.75;;;;;19.61;100.00;102313.94;5040309;28;45290;-86
2021/10/11 05:33:49;;;;;;;;;13.00;9.75;;;;;19.57;100.00;102325.91;5039872;28;45406;-86
2021/10/11 05:36:14;;;;;;;;;11.00;10.50;;;;;19.50;100.00;102314.81;5057485;28;45389;-86
2021/10/11 05:38:40;;;;;;;;;12.50;11.75;;;;;19.42;100.00;102314.53;5038327;28;45393;-86
2021/10/11 05:41:05;;;;;;;;;15.00;10.25;;;;;19.44;100.00;102318.81;5033515;28;45373;-86
2021/10/11 05:43:31;;;;;;;;;10.25;7.00;;;;;19.42;100.00;102326.09;5021388;28;45375;-86
2021/10/11 05:45:56;;;;;;;;;10.75;8.50;;;;;19.47;100.00;102322.22;5034398;28;45785;-84
2021/10/11 05:48:21;;;;;;;;;7.50;7.25;;;;;19.45;100.00;102314.31;5030334;28;45347;-85
2021/10/11 05:50:47;;;;;;;;;11.75;8.50;;;;;19.41;100.00;102319.03;5028140;28;45596;-84
2021/10/11 05:53:12;;;;;;;;;8.00;8.00;;;;;19.46;100.00;102323.19;5033631;28;47508;-84
2021/10/11 05:55:38;;;;;;;;;11.25;9.00;;;;;19.53;100.00;102327.13;5037644;28;45430;-85
2021/10/11 05:58:03;;;;;;;;;11.00;9.00;;;;;19.65;100.00;102339.53;5037210;28;45815;-84
2021/10/11 06:00:29;;;;;;;;;7.50;7.50;;;;;19.62;100.00;102326.38;5038525;28;45434;-83
2021/10/11 06:02:54;;;;;;;;;14.00;12.25;;;;;19.70;100.00;102337.31;5031525;28;47593;-84
2021/10/11 06:05:19;;;;;;;;;14.00;10.50;;;;;19.72;100.00;102338.91;5028101;28;45435;-82
2021/10/11 06:07:45;;;;;;;;;10.25;9.00;;;;;19.77;100.00;102336.69;5034069;28;45494;-84
2021/10/11 06:10:11;;;;;;;;;13.50;10.00;;;;;19.86;100.00;102337.78;5021485;28;45611;-84
2021/10/11 06:12:36;;;;;;;;;14.00;9.50;;;;;19.91;100.00;102343.63;5036281;28;46203;-83
2021/10/11 06:15:02;;;;;;;;;13.25;9.75;;;;;19.90;100.00;102343.75;5034435;28;45417;-84
2021/10/11 06:17:27;;;;;;;;;13.00;8.75;;;;;19.86;100.00;102345.81;5026148;28;45378;-84
2021/10/11 06:19:53;;;;;;;;;13.50;8.00;;;;;19.83;100.00;102355.97;5042359;28;45512;-83
2021/10/11 06:22:19;;;;;;;;;9.75;8.50;;;;;19.82;100.00;102351.56;5030293;28;46154;-84
2021/10/11 06:24:44;;;;;;;;;9.00;9.00;;;;;19.77;100.00;102352.78;5026241;28;45786;-83
2021/10/11 06:27:10;;;;;;;;;12.25;7.50;;;;;19.87;100.00;102363.63;5029905;28;45784;-85
2021/10/11 06:29:36;;;;;;;;;9.50;9.50;;;;;19.87;100.00;102358.25;5024463;28;45426;-87
2021/10/11 06:32:01;;;;;;;;;13.50;11.00;;;;;19.93;100.00;102365.81;5032893;28;45840;-86
2021/10/11 06:34:26;;;;;;;;;11.50;8.00;;;;;19.97;100.00;102359.22;5026687;28;45497;-88
2021/10/11 06:36:52;;;;;;;;;7.75;7.75;;;;;19.92;100.00;102364.13;5026869;28;45414;-83
2021/10/11 06:39:17;;;;;;;;;10.00;6.75;;;;;19.97;100.00;102359.22;5027076;28;45458;-84
2021/10/11 06:41:43;;;;;;;;;10.25;8.00;;;;;19.97;100.00;102364.56;5023309;28;45560;-85
2021/10/11 06:44:09;;;;;;;;;9.25;7.25;;;;;19.96;100.00;102367.38;5029495;28;46022;-86
2021/10/11 06:46:34;;;;;;;;;9.00;6.00;;;;;20.00;100.00;102369.69;5028786;28;45594;-85
2021/10/11 06:49:00;;;;;;;;;10.25;6.00;;;;;20.07;100.00;102372.72;5028669;28;45348;-86
2021/10/11 06:51:25;;;;;;;;;9.50;6.75;;;;;20.13;100.00;102378.44;5035154;28;46988;-89
2021/10/11 06:53:51;;;;;;;;;9.00;7.00;;;;;20.18;100.00;102373.56;5038338;28;45349;-91
2021/10/11 06:56:16;;;;;;;;;11.25;6.00;;;;;20.15;100.00;102378.31;5039581;28;45574;-90
2021/10/11 06:58:41;;;;;;;;;8.25;6.75;;;;;20.09;100.00;102379.69;5043498;28;45440;-85
2021/10/11 07:01:07;;;;;;;;;8.00;5.75;;;;;20.08;100.00;102372.59;5020843;28;45528;-85
2021/10/11 07:03:32;;;;;;;;;8.00;7.00;;;;;19.94;100.00;102369.34;5033010;28;45329;-84
2021/10/11 07:06:06;;;;;;;;;10.50;7.25;;;;;19.98;100.00;102363.59;5025256;28;45771;-85
2021/10/11 07:08:32;;;;;;;;;8.50;7.00;;;;;19.92;100.00;102368.63;5030656;28;45498;-84
2021/10/11 07:10:58;;;;;;;;;6.75;6.25;;;;;19.95;100.00;102371.88;5032850;28;45480;-85
2021/10/11 07:13:24;;;;;;;;;7.00;7.00;;;;;19.98;100.00;102378.84;5023211;28;45478;-84
2021/10/11 07:15:50;;;;;;;;;11.25;5.50;;;;;20.07;100.00;102370.91;5029854;28;45691;-85
2021/10/11 07:18:16;;;;;;;;;13.00;8.00;;;;;20.11;100.00;102376.88;5024691;28;45611;-86
2021/10/11 07:20:45;;;;;;;;;11.50;7.25;;;;;20.17;100.00;102379.03;5034838;28;46055;-85
2021/10/11 07:23:15;;;;;;;;;12.50;7.00;;;;;20.14;100.00;102384.66;5043459;28;45343;-85
2021/10/11 07:25:41;;;;;;;;;8.00;7.00;;;;;20.16;100.00;102388.91;5035183;28;45523;-85
2021/10/11 07:28:07;;;;;;;;;11.00;6.75;;;;;20.26;100.00;102397.06;5029626;28;45642;-85
2021/10/11 07:30:33;;;;;;;;;12.25;9.25;;;;;20.65;100.00;102398.31;5027826;28;45513;-87
2021/10/11 07:33:00;;;;;;;;;10.25;6.00;;;;;21.65;100.00;102395.00;5028503;28;45667;-89
2021/10/11 07:35:26;;;;;;;;;7.50;5.00;;;;;22.74;100.00;102405.75;5050784;28;45258;-84
2021/10/11 07:37:51;;;;;;;;;10.25;7.25;;;;;23.71;100.00;102398.28;5035090;28;45535;-85
2021/10/11 07:40:18;;;;;;;;;9.25;5.50;;;;;24.45;100.00;102403.56;5033867;28;46933;-86
2021/10/11 07:42:43;;;;;;;;;7.00;4.00;;;;;25.33;100.00;102410.72;5036871;28;45301;-86
2021/10/11 07:45:09;;;;;;;;;6.00;5.25;;;;;26.21;100.00;102415.88;5034055;28;45544;-86
2021/10/11 07:47:34;;;;;;;;;7.25;4.50;;;;;26.66;100.00;102400.06;5047152;28;45278;-85
2021/10/11 07:50:01;;;;;;;;;8.50;5.50;;;;;27.18;100.00;102397.00;5025944;28;45259;-85
2021/10/11 07:52:27;;;;;;;;;6.25;5.00;;;;;27.88;100.00;102405.28;5035293;27;45423;-86
2021/10/11 07:54:52;;;;;;;;;8.00;6.50;;;;;28.57;100.00;102404.41;5049362;27;45736;-86
2021/10/11 07:57:18;;;;;;;;;5.25;5.25;;;;;29.24;96.73;102403.63;5042694;28;45384;-86
2021/10/11 07:59:43;;;;;;;;;6.50;6.00;;;;;29.71;90.90;102409.59;5042819;28;45701;-86
2021/10/11 08:02:09;;;;;;;;;6.50;4.00;;;;;30.11;88.09;102396.50;5053270;28;45546;-85
2021/10/11 08:04:34;;;;;;;;;10.00;5.25;;;;;30.71;84.99;102409.72;5030866;28;45407;-86
2021/10/11 08:07:00;;;;;;;;;5.00;4.75;;;;;31.20;79.75;102406.16;5032191;28;45908;-86
2021/10/11 08:09:25;;;;;;;;;7.50;5.00;;;;;31.66;76.03;102403.75;5027164;28;46008;-86
2021/10/11 08:11:50;;;;;;;;;4.00;4.00;;;;;31.89;74.72;102415.19;5036355;28;45334;-86
2021/10/11 08:14:16;;;;;;;;;5.00;3.00;;;;;32.15;70.63;102414.44;5036534;28;45304;-85
2021/10/11 08:16:41;;;;;;;;;5.00;3.00;;;;;32.44;65.56;102413.28;5022333;28;45408;-85
2021/10/11 08:19:08;;;;;;;;;5.50;3.75;;;;;32.83;65.44;102422.63;5034951;28;47401;-86
2021/10/11 08:21:33;;;;;;;;;4.75;3.25;;;;;33.08;62.97;102412.69;5038048;28;45872;-86
2021/10/11 08:23:59;;;;;;;;;6.50;4.75;;;;;33.23;63.45;102418.00;5027957;28;45424;-84
2021/10/11 08:26:25;;;;;;;;;10.25;6.50;;;;;33.55;61.31;102410.75;5048547;28;45546;-85
2021/10/11 08:28:51;;;;;;;;;4.50;4.00;;;;;33.79;59.96;102412.78;5049585;28;47850;-85
2021/10/11 08:31:17;;;;;;;;;6.50;4.00;;;;;34.06;58.04;102408.03;5042073;28;45457;-85
2021/10/11 08:33:42;;;;;;;;;8.75;5.75;;;;;33.38;55.13;102421.34;5027944;28;45473;-85
2021/10/11 08:36:11;;;;;;;;;3.25;1.75;;;;;32.44;55.42;102418.75;5032424;28;46196;-85
2021/10/11 08:38:37;;;;;;;;;3.75;3.50;;;;;32.53;55.74;102409.28;5034059;28;48597;-85
2021/10/11 08:41:04;;;;;;;;;4.50;3.00;;;;;33.09;55.15;102411.66;5035891;28;45280;-85
2021/10/11 08:43:30;;;;;;;;;5.00;2.50;;;;;33.62;54.91;102408.81;5036966;27;45502;-85
2021/10/11 08:45:55;;;;;;;;;5.25;4.25;;;;;34.02;54.90;102417.75;5026163;28;45617;-86
2021/10/11 08:48:21;;;;;;;;;4.25;3.25;;;;;34.35;52.49;102415.69;5023877;28;45384;-85
2021/10/11 08:50:46;;;;;;;;;1.50;0.00;;;;;34.63;50.29;102419.94;5035334;28;45394;-87
2021/10/11 08:53:14;;;;;;;;;5.75;1.75;;;;;34.75;49.69;102416.28;5036357;28;45426;-87
2021/10/11 08:55:39;;;;;;;;;6.25;3.25;;;;;34.87;48.14;102428.22;5032706;27;45451;-86
2021/10/11 08:58:07;;;;;;;;;4.00;1.50;;;;;35.07;47.79;102429.94;5016133;28;46189;-87
2021/10/11 09:00:38;;;;;;;;;4.50;1.75;;;;;35.22;45.82;102419.47;5038522;28;45197;-87
2021/10/11 09:03:05;;;;;;;;;1.00;1.00;;;;;35.51;44.84;102428.91;5037492;28;45550;-86
2021/10/11 09:05:40;;;;;;;;;2.25;2.25;;;;;35.91;44.73;102430.13;5024875;27;45841;-86
2021/10/11 09:08:09;;;;;;;;;2.00;0.50;;;;;36.16;41.03;102424.50;5032828;28;47146;-87
2021/10/11 09:10:55;;;;;;;;;3.00;1.75;;;;;35.50;41.77;102432.72;5017967;28;45592;-87
2021/10/11 09:13:31;;;;;;;;;1.00;1.00;;;;;34.97;42.38;102427.69;5024801;28;45548;-87
2021/10/11 09:16:28;;;;;;;;;3.00;3.00;;;;;34.82;41.67;102439.03;5023274;28;45534;-87
2021/10/11 09:18:57;;;;;;;;;3.00;1.75;;;;;35.03;40.87;102439.72;5030877;28;48207;-85
2021/10/11 09:21:30;;;;;;;;;5.75;3.50;;;;;35.19;42.38;102439.97;5020894;28;45309;-84
2021/10/11 09:24:11;;;;;;;;;2.75;2.00;;;;;35.54;39.49;102437.53;5026687;28;45370;-84
2021/10/11 09:26:59;;;;;;;;;7.50;4.25;;;;;35.31;40.89;102442.84;5033650;28;45865;-86
2021/10/11 09:29:36;;;;;;;;;7.75;4.00;;;;;34.56;41.08;102436.47;5030601;28;45623;-85
2021/10/11 09:32:10;;;;;;;;;8.50;3.00;;;;;34.18;41.97;102434.56;5027359;28;45312;-85
2021/10/11 09:34:39;;;;;;;;;7.00;2.75;;;;;33.97;41.62;102437.59;5020475;28;46266;-85
2021/10/11 09:37:13;;;;;;;;;6.75;2.00;;;;;33.45;42.59;102424.91;5038357;28;45332;-85
2021/10/11 09:39:40;;;;;;;;;5.50;1.75;;;;;33.36;42.87;102426.19;5036833;28;47153;-86
2021/10/11 09:42:11;;;;;;;;;4.00;1.00;;;;;32.87;42.97;102421.97;5031009;28;45651;-85
2021/10/11 09:44:37;;;;;;;;;5.50;2.25;;;;;32.37;43.07;102428.00;5046029;28;45352;-86
2021/10/11 09:47:08;;;;;;;;;5.25;1.50;;;;;31.61;44.45;102425.31;5038506;28;45316;-86
2021/10/11 09:49:33;;;;;;;;;9.50;9.50;;;;;31.16;45.43;102424.81;5045613;28;45570;-85
2021/10/11 09:51:59;;;;;;;;;6.25;4.50;;;;;30.81;46.76;102437.50;5044631;28;45479;-86
2021/10/11 09:54:25;;;;;;;;;7.00;2.75;;;;;30.47;46.68;102438.22;5046542;28;45477;-85
2021/10/11 09:56:50;;;;;;;;;27.50;23.75;;;;;30.12;47.48;102431.75;5034346;28;45673;-86
2021/10/11 09:59:16;;;;;;;;;2.75;2.75;;;;;29.95;47.70;102424.81;5036742;28;45557;-86
2021/10/11 10:01:46;;;;;;;;;5.50;2.00;;;;;29.95;48.47;102423.97;5048495;28;45476;-86
2021/10/11 10:04:33;;;;;;;;;3.25;3.00;;;;;29.71;47.74;102425.94;5026298;28;45479;-86
2021/10/11 10:07:01;;;;;;;;;5.00;3.25;;;;;29.65;49.11;102428.56;5032269;28;45502;-83
2021/10/11 10:09:28;;;;;;;;;2.00;2.00;;;;;29.37;48.71;102422.94;5021756;28;45384;-86
2021/10/11 10:11:54;;;;;;;;;8.00;5.00;;;;;29.09;48.40;102433.53;5018351;28;45545;-85
2021/10/11 10:14:26;;;;;;;;;3.00;2.25;;;;;28.83;48.29;102417.63;5032618;28;45276;-90
2021/10/11 10:16:54;;;;;;;;;2.00;2.00;;;;;28.76;49.08;102427.53;5033113;28;45377;-86
2021/10/11 10:19:33;;;;;;;;;4.50;3.75;;;;;28.66;50.46;102426.91;5023906;28;47041;-86
2021/10/11 10:21:58;;;;;;;;;5.00;3.50;;;;;28.66;50.39;102426.91;5036845;27;45387;-84
2021/10/11 10:24:26;;;;;;;;;2.50;2.50;;;;;28.74;49.52;102421.41;5041199;28;45626;-85
2021/10/11 10:27:03;;;;;;;;;6.00;4.00;;;;;28.79;50.58;102424.47;5033337;28;45453;-84
2021/10/11 10:29:38;;;;;;;;;11.00;7.50;;;;;28.67;51.10;102426.75;5038050;28;45512;-85
2021/10/11 10:32:08;;;;;;;;;6.50;3.25;;;;;28.67;50.52;102428.63;5040572;28;45501;-86
2021/10/11 10:34:34;;;;;;;;;4.00;1.50;;;;;28.66;50.51;102419.63;5049137;28;45428;-85
2021/10/11 10:37:05;;;;;;;;;3.25;2.75;;;;;28.47;49.93;102416.53;5019984;28;45425;-84
2021/10/11 10:39:48;;;;;;;;;4.00;3.00;;;;;28.35;49.93;102410.66;5031900;28;45467;-83
2021/10/11 10:42:24;;;;;;;;;3.50;3.00;;;;;28.29;50.09;102425.81;5036180;28;45892;-84
2021/10/11 10:44:49;;;;;;;;;3.75;2.00;;;;;28.21;50.61;102423.16;5028908;28;45438;-84
2021/10/11 10:47:15;;;;;;;;;5.00;3.75;;;;;28.21;50.45;102425.03;5045376;28;45613;-84
2021/10/11 10:49:47;;;;;;;;;4.50;4.50;;;;;28.32;49.95;102421.88;5040976;28;45419;-84
2021/10/11 10:52:23;;;;;;;;;5.25;3.00;;;;;28.61;49.04;102429.31;5028489;28;45424;-85
2021/10/11 10:54:55;;;;;;;;;4.25;3.50;;;;;28.84;49.92;102429.38;5046040;28;45319;-85
2021/10/11 10:57:25;;;;;;;;;5.75;2.00;;;;;28.96;48.13;102428.72;5032617;28;45514;-87
2021/10/11 10:59:53;;;;;;;;;4.50;2.75;;;;;29.04;49.21;102427.81;5029924;28;48199;-85
2021/10/11 11:02:19;;;;;;;;;8.50;3.25;;;;;29.11;48.95;102427.94;5035775;28;45440;-84
2021/10/11 11:04:52;;;;;;;;;5.00;3.00;;;;;29.11;48.70;102431.50;5034628;28;45564;-84
2021/10/11 11:07:27;;;;;;;;;3.25;3.25;;;;;29.33;48.75;102430.56;5033295;28;45468;-84